sensor_id;sensor_type;location;lat;lon;timestamp;temperature;humidity
33815;DHT22;20121;51.910;8.406;2023-11-21T00:02:03;6.30;99.90
33815;DHT22;20121;51.910;8.406;2023-11-21T00:04:30;6.20;99.90
33815;DHT22;20121;51.910;8.406;2023-11-21T00:06:55;6.30;99.90
33815;DHT22;20121;51.910;8.406;2023-11-21T00:09:21;6.30;99.90
33815;DHT22;20121;51.910;8.406;2023-11-21T00:11:47;6.70;99.90
33815;DHT22;20121;51.910;8.406;2023-11-21T00:16:41;6.50;99.90
33815;DHT22;20121;51.910;8.406;2023-11-21T00:19:07;6.40;99.90
33815;DHT22;20121;51.910;8.406;2023-11-21T00:23:58;6.80;99.90
33815;DHT22;20121;51.910;8.406;2023-11-21T00:26:24;6.40;99.90
33815;DHT22;20121;51.910;8.406;2023-11-21T00:28:50;7.00;99.90
33815;DHT22;20121;51.910;8.406;2023-11-21T00:31:16;6.60;99.90
33815;DHT22;20121;51.910;8.406;2023-11-21T00:33:42;6.40;99.90
33815;DHT22;20121;51.910;8.406;2023-11-21T00:36:09;6.90;99.90
33815;DHT22;20121;51.910;8.406;2023-11-21T00:38:35;6.60;99.90
33815;DHT22;20121;51.910;8.406;2023-11-21T00:41:01;6.60;99.90
33815;DHT22;20121;51.910;8.406;2023-11-21T00:43:28;6.60;99.90
33815;DHT22;20121;51.910;8.406;2023-11-21T00:45:53;6.60;99.90
33815;DHT22;20121;51.910;8.406;2023-11-21T00:48:19;6.60;99.90
33815;DHT22;20121;51.910;8.406;2023-11-21T00:50:45;6.70;99.90
33815;DHT22;20121;51.910;8.406;2023-11-21T00:53:10;6.90;99.90
33815;DHT22;20121;51.910;8.406;2023-11-21T00:55:37;6.70;99.90
33815;DHT22;20121;51.910;8.406;2023-11-21T00:58:05;6.40;99.90
33815;DHT22;20121;51.910;8.406;2023-11-21T01:00:35;6.90;99.90
33815;DHT22;20121;51.910;8.406;2023-11-21T01:03:00;6.50;99.90
33815;DHT22;20121;51.910;8.406;2023-11-21T01:05:26;6.80;99.90
33815;DHT22;20121;51.910;8.406;2023-11-21T01:07:52;6.80;99.90
33815;DHT22;20121;51.910;8.406;2023-11-21T01:10:18;6.80;99.90
33815;DHT22;20121;51.910;8.406;2023-11-21T01:12:43;6.80;99.90
33815;DHT22;20121;51.910;8.406;2023-11-21T01:15:09;7.20;99.90
33815;DHT22;20121;51.910;8.406;2023-11-21T01:17:37;6.80;99.90
33815;DHT22;20121;51.910;8.406;2023-11-21T01:20:04;6.90;99.90
33815;DHT22;20121;51.910;8.406;2023-11-21T01:22:37;6.90;99.90
33815;DHT22;20121;51.910;8.406;2023-11-21T01:25:02;6.60;99.90
33815;DHT22;20121;51.910;8.406;2023-11-21T01:27:29;6.90;99.90
33815;DHT22;20121;51.910;8.406;2023-11-21T01:32:21;7.00;99.90
33815;DHT22;20121;51.910;8.406;2023-11-21T01:34:48;7.00;99.90
33815;DHT22;20121;51.910;8.406;2023-11-21T01:37:13;6.90;99.90
33815;DHT22;20121;51.910;8.406;2023-11-21T01:39:39;7.00;99.90
33815;DHT22;20121;51.910;8.406;2023-11-21T01:42:06;7.40;99.90
33815;DHT22;20121;51.910;8.406;2023-11-21T01:44:33;7.10;99.90
33815;DHT22;20121;51.910;8.406;2023-11-21T01:46:58;6.90;99.90
33815;DHT22;20121;51.910;8.406;2023-11-21T01:49:24;7.10;99.90
33815;DHT22;20121;51.910;8.406;2023-11-21T01:51:50;7.40;99.90
33815;DHT22;20121;51.910;8.406;2023-11-21T01:54:17;7.10;99.90
33815;DHT22;20121;51.910;8.406;2023-11-21T01:56:46;7.10;99.90
33815;DHT22;20121;51.910;8.406;2023-11-21T01:59:14;6.80;99.90
33815;DHT22;20121;51.910;8.406;2023-11-21T02:01:43;6.90;99.90
33815;DHT22;20121;51.910;8.406;2023-11-21T02:04:09;7.50;99.90
33815;DHT22;20121;51.910;8.406;2023-11-21T02:06:35;7.60;99.90
33815;DHT22;20121;51.910;8.406;2023-11-21T02:09:01;7.20;99.90
33815;DHT22;20121;51.910;8.406;2023-11-21T02:13:53;7.10;99.90
33815;DHT22;20121;51.910;8.406;2023-11-21T02:16:19;7.20;99.90
33815;DHT22;20121;51.910;8.406;2023-11-21T02:18:47;7.20;99.90
33815;DHT22;20121;51.910;8.406;2023-11-21T02:21:14;7.50;99.90
33815;DHT22;20121;51.910;8.406;2023-11-21T02:23:40;7.20;99.90
33815;DHT22;20121;51.910;8.406;2023-11-21T02:26:10;7.10;99.90
33815;DHT22;20121;51.910;8.406;2023-11-21T02:28:36;7.20;99.90
33815;DHT22;20121;51.910;8.406;2023-11-21T02:31:02;7.30;99.90
33815;DHT22;20121;51.910;8.406;2023-11-21T02:33:30;6.90;99.90
33815;DHT22;20121;51.910;8.406;2023-11-21T02:36:02;7.20;99.90
33815;DHT22;20121;51.910;8.406;2023-11-21T02:38:28;7.20;99.90
33815;DHT22;20121;51.910;8.406;2023-11-21T02:40:54;7.20;99.90
33815;DHT22;20121;51.910;8.406;2023-11-21T02:43:20;7.30;99.90
33815;DHT22;20121;51.910;8.406;2023-11-21T02:45:45;7.30;99.90
33815;DHT22;20121;51.910;8.406;2023-11-21T02:48:11;7.10;99.90
33815;DHT22;20121;51.910;8.406;2023-11-21T02:50:36;7.40;99.90
33815;DHT22;20121;51.910;8.406;2023-11-21T02:53:03;7.30;99.90
33815;DHT22;20121;51.910;8.406;2023-11-21T02:55:31;7.00;99.90
33815;DHT22;20121;51.910;8.406;2023-11-21T02:58:00;7.30;99.90
33815;DHT22;20121;51.910;8.406;2023-11-21T03:00:26;7.30;99.90
33815;DHT22;20121;51.910;8.406;2023-11-21T03:02:51;7.40;99.90
33815;DHT22;20121;51.910;8.406;2023-11-21T03:05:17;7.30;99.90
33815;DHT22;20121;51.910;8.406;2023-11-21T03:07:42;7.40;99.90
33815;DHT22;20121;51.910;8.406;2023-11-21T03:10:09;7.40;99.90
33815;DHT22;20121;51.910;8.406;2023-11-21T03:12:39;7.40;99.90
33815;DHT22;20121;51.910;8.406;2023-11-21T03:15:06;7.40;99.90
33815;DHT22;20121;51.910;8.406;2023-11-21T03:17:32;7.40;99.90
33815;DHT22;20121;51.910;8.406;2023-11-21T03:20:00;7.40;99.90
33815;DHT22;20121;51.910;8.406;2023-11-21T03:22:25;7.30;99.90
33815;DHT22;20121;51.910;8.406;2023-11-21T03:24:52;7.30;99.90
33815;DHT22;20121;51.910;8.406;2023-11-21T03:27:18;7.30;99.90
33815;DHT22;20121;51.910;8.406;2023-11-21T03:29:44;7.10;99.90
33815;DHT22;20121;51.910;8.406;2023-11-21T03:32:12;7.30;99.90
33815;DHT22;20121;51.910;8.406;2023-11-21T03:34:56;7.30;99.90
33815;DHT22;20121;51.910;8.406;2023-11-21T03:37:22;7.30;99.90
33815;DHT22;20121;51.910;8.406;2023-11-21T03:39:48;7.30;99.90
33815;DHT22;20121;51.910;8.406;2023-11-21T03:42:13;6.90;99.90
33815;DHT22;20121;51.910;8.406;2023-11-21T03:44:39;7.30;99.90
33815;DHT22;20121;51.910;8.406;2023-11-21T03:47:04;7.30;99.90
33815;DHT22;20121;51.910;8.406;2023-11-21T03:49:30;7.20;99.90
33815;DHT22;20121;51.910;8.406;2023-11-21T03:51:56;7.20;99.90
33815;DHT22;20121;51.910;8.406;2023-11-21T03:54:22;7.40;99.90
33815;DHT22;20121;51.910;8.406;2023-11-21T03:56:47;7.20;99.90
33815;DHT22;20121;51.910;8.406;2023-11-21T03:59:13;7.30;99.90
33815;DHT22;20121;51.910;8.406;2023-11-21T04:01:38;7.30;99.90
33815;DHT22;20121;51.910;8.406;2023-11-21T04:04:04;7.30;99.90
33815;DHT22;20121;51.910;8.406;2023-11-21T04:06:30;7.30;99.90
33815;DHT22;20121;51.910;8.406;2023-11-21T04:08:58;7.30;99.90
33815;DHT22;20121;51.910;8.406;2023-11-21T04:11:24;7.30;99.90
33815;DHT22;20121;51.910;8.406;2023-11-21T04:13:49;7.30;99.90
33815;DHT22;20121;51.910;8.406;2023-11-21T04:16:15;7.50;99.90
33815;DHT22;20121;51.910;8.406;2023-11-21T04:18:40;7.30;99.90
33815;DHT22;20121;51.910;8.406;2023-11-21T04:21:06;7.20;99.90
33815;DHT22;20121;51.910;8.406;2023-11-21T04:23:33;7.10;99.90
33815;DHT22;20121;51.910;8.406;2023-11-21T04:25:58;7.30;99.90
33815;DHT22;20121;51.910;8.406;2023-11-21T04:28:24;7.40;99.90
33815;DHT22;20121;51.910;8.406;2023-11-21T04:30:50;7.40;99.90
33815;DHT22;20121;51.910;8.406;2023-11-21T04:33:16;7.60;99.90
33815;DHT22;20121;51.910;8.406;2023-11-21T04:35:42;7.70;99.90
33815;DHT22;20121;51.910;8.406;2023-11-21T04:38:07;7.40;99.90
33815;DHT22;20121;51.910;8.406;2023-11-21T04:40:33;7.60;99.90
33815;DHT22;20121;51.910;8.406;2023-11-21T04:42:59;7.40;99.90
33815;DHT22;20121;51.910;8.406;2023-11-21T04:45:24;7.40;99.90
33815;DHT22;20121;51.910;8.406;2023-11-21T04:47:50;7.40;99.90
33815;DHT22;20121;51.910;8.406;2023-11-21T04:50:16;7.20;99.90
33815;DHT22;20121;51.910;8.406;2023-11-21T04:52:41;7.40;99.90
33815;DHT22;20121;51.910;8.406;2023-11-21T04:55:07;7.30;99.90
33815;DHT22;20121;51.910;8.406;2023-11-21T04:57:36;7.40;99.90
33815;DHT22;20121;51.910;8.406;2023-11-21T05:02:33;7.30;99.90
33815;DHT22;20121;51.910;8.406;2023-11-21T05:05:03;7.40;99.90
33815;DHT22;20121;51.910;8.406;2023-11-21T05:07:32;7.40;99.90
33815;DHT22;20121;51.910;8.406;2023-11-21T05:09:57;7.40;99.90
33815;DHT22;20121;51.910;8.406;2023-11-21T05:12:24;7.30;99.90
33815;DHT22;20121;51.910;8.406;2023-11-21T05:14:50;7.30;99.90
33815;DHT22;20121;51.910;8.406;2023-11-21T05:17:16;7.10;99.90
33815;DHT22;20121;51.910;8.406;2023-11-21T05:19:41;7.30;99.90
33815;DHT22;20121;51.910;8.406;2023-11-21T05:22:08;7.30;99.90
33815;DHT22;20121;51.910;8.406;2023-11-21T05:24:34;7.30;99.90
33815;DHT22;20121;51.910;8.406;2023-11-21T05:27:00;7.30;99.90
33815;DHT22;20121;51.910;8.406;2023-11-21T05:29:26;7.30;99.90
33815;DHT22;20121;51.910;8.406;2023-11-21T05:31:52;7.30;99.90
33815;DHT22;20121;51.910;8.406;2023-11-21T05:34:18;7.20;99.90
33815;DHT22;20121;51.910;8.406;2023-11-21T05:36:44;7.30;99.90
33815;DHT22;20121;51.910;8.406;2023-11-21T05:39:14;7.00;99.90
33815;DHT22;20121;51.910;8.406;2023-11-21T05:41:39;7.20;99.90
33815;DHT22;20121;51.910;8.406;2023-11-21T05:44:05;7.30;99.90
33815;DHT22;20121;51.910;8.406;2023-11-21T05:46:31;7.30;99.90
33815;DHT22;20121;51.910;8.406;2023-11-21T05:48:56;7.30;99.90
33815;DHT22;20121;51.910;8.406;2023-11-21T05:51:22;6.60;99.90
33815;DHT22;20121;51.910;8.406;2023-11-21T05:53:50;7.30;99.90
33815;DHT22;20121;51.910;8.406;2023-11-21T05:56:15;7.30;99.90
33815;DHT22;20121;51.910;8.406;2023-11-21T05:58:42;7.30;99.90
33815;DHT22;20121;51.910;8.406;2023-11-21T06:01:08;7.30;99.90
33815;DHT22;20121;51.910;8.406;2023-11-21T06:03:34;6.90;99.90
33815;DHT22;20121;51.910;8.406;2023-11-21T06:06:00;7.60;99.90
33815;DHT22;20121;51.910;8.406;2023-11-21T06:08:26;7.30;99.90
33815;DHT22;20121;51.910;8.406;2023-11-21T06:10:52;7.30;99.90
33815;DHT22;20121;51.910;8.406;2023-11-21T06:13:17;7.40;99.90
33815;DHT22;20121;51.910;8.406;2023-11-21T06:15:52;7.40;99.90
33815;DHT22;20121;51.910;8.406;2023-11-21T06:18:18;7.70;99.90
33815;DHT22;20121;51.910;8.406;2023-11-21T06:20:46;7.40;99.90
33815;DHT22;20121;51.910;8.406;2023-11-21T06:23:12;7.30;99.90
33815;DHT22;20121;51.910;8.406;2023-11-21T06:25:38;7.30;99.90
33815;DHT22;20121;51.910;8.406;2023-11-21T06:28:04;7.30;99.90
33815;DHT22;20121;51.910;8.406;2023-11-21T06:30:30;8.10;99.90
33815;DHT22;20121;51.910;8.406;2023-11-21T06:32:56;7.30;99.90
33815;DHT22;20121;51.910;8.406;2023-11-21T06:35:21;7.30;99.90
33815;DHT22;20121;51.910;8.406;2023-11-21T06:37:47;7.40;99.90
33815;DHT22;20121;51.910;8.406;2023-11-21T06:40:13;7.20;99.90
33815;DHT22;20121;51.910;8.406;2023-11-21T06:42:40;7.40;99.90
33815;DHT22;20121;51.910;8.406;2023-11-21T06:45:07;7.40;99.90
33815;DHT22;20121;51.910;8.406;2023-11-21T06:47:33;7.40;99.90
33815;DHT22;20121;51.910;8.406;2023-11-21T06:49:59;6.50;99.90
33815;DHT22;20121;51.910;8.406;2023-11-21T06:52:25;7.40;99.90
33815;DHT22;20121;51.910;8.406;2023-11-21T06:54:51;8.70;99.90
33815;DHT22;20121;51.910;8.406;2023-11-21T06:57:16;7.30;99.90
33815;DHT22;20121;51.910;8.406;2023-11-21T06:59:42;7.40;99.90
33815;DHT22;20121;51.910;8.406;2023-11-21T07:02:08;7.60;99.90
33815;DHT22;20121;51.910;8.406;2023-11-21T07:04:37;7.50;99.90
33815;DHT22;20121;51.910;8.406;2023-11-21T07:07:03;7.70;99.90
33815;DHT22;20121;51.910;8.406;2023-11-21T07:09:29;7.50;99.90
33815;DHT22;20121;51.910;8.406;2023-11-21T07:11:56;7.50;99.90
33815;DHT22;20121;51.910;8.406;2023-11-21T07:14:21;7.30;99.90
33815;DHT22;20121;51.910;8.406;2023-11-21T07:16:47;7.50;99.90
33815;DHT22;20121;51.910;8.406;2023-11-21T07:19:13;7.50;99.90
33815;DHT22;20121;51.910;8.406;2023-11-21T07:21:40;7.20;99.90
33815;DHT22;20121;51.910;8.406;2023-11-21T07:24:07;7.50;99.90
33815;DHT22;20121;51.910;8.406;2023-11-21T07:26:34;7.50;99.90
33815;DHT22;20121;51.910;8.406;2023-11-21T07:29:03;7.50;99.90
33815;DHT22;20121;51.910;8.406;2023-11-21T07:31:29;7.60;99.90
33815;DHT22;20121;51.910;8.406;2023-11-21T07:33:55;7.60;99.90
33815;DHT22;20121;51.910;8.406;2023-11-21T07:36:23;7.60;99.90
33815;DHT22;20121;51.910;8.406;2023-11-21T07:38:50;7.60;99.90
33815;DHT22;20121;51.910;8.406;2023-11-21T07:41:16;7.40;99.90
33815;DHT22;20121;51.910;8.406;2023-11-21T07:43:43;7.80;99.90
33815;DHT22;20121;51.910;8.406;2023-11-21T07:46:09;7.60;99.90
33815;DHT22;20121;51.910;8.406;2023-11-21T07:48:35;7.30;99.90
33815;DHT22;20121;51.910;8.406;2023-11-21T07:51:03;7.60;99.90
33815;DHT22;20121;51.910;8.406;2023-11-21T07:53:29;7.60;99.90
33815;DHT22;20121;51.910;8.406;2023-11-21T07:56:00;7.90;99.90
33815;DHT22;20121;51.910;8.406;2023-11-21T07:58:27;7.60;99.90
33815;DHT22;20121;51.910;8.406;2023-11-21T08:00:53;7.80;99.90
33815;DHT22;20121;51.910;8.406;2023-11-21T08:03:19;7.60;99.90
33815;DHT22;20121;51.910;8.406;2023-11-21T08:05:45;7.70;99.90
33815;DHT22;20121;51.910;8.406;2023-11-21T08:08:10;7.20;99.90
33815;DHT22;20121;51.910;8.406;2023-11-21T08:10:36;7.40;99.90
33815;DHT22;20121;51.910;8.406;2023-11-21T08:13:03;7.70;99.90
33815;DHT22;20121;51.910;8.406;2023-11-21T08:15:29;7.70;99.90
33815;DHT22;20121;51.910;8.406;2023-11-21T08:17:55;7.70;99.90
33815;DHT22;20121;51.910;8.406;2023-11-21T08:20:20;7.60;99.90
33815;DHT22;20121;51.910;8.406;2023-11-21T08:22:48;7.80;99.90
33815;DHT22;20121;51.910;8.406;2023-11-21T08:25:14;8.00;99.90
33815;DHT22;20121;51.910;8.406;2023-11-21T08:27:39;8.00;99.90
33815;DHT22;20121;51.910;8.406;2023-11-21T08:30:06;7.80;99.90
33815;DHT22;20121;51.910;8.406;2023-11-21T08:32:32;7.80;99.90
33815;DHT22;20121;51.910;8.406;2023-11-21T08:35:01;7.80;99.90
33815;DHT22;20121;51.910;8.406;2023-11-21T08:37:27;8.00;99.90
33815;DHT22;20121;51.910;8.406;2023-11-21T08:39:57;7.80;99.90
33815;DHT22;20121;51.910;8.406;2023-11-21T08:44:51;8.10;99.90
33815;DHT22;20121;51.910;8.406;2023-11-21T08:49:42;7.80;99.90
33815;DHT22;20121;51.910;8.406;2023-11-21T08:54:34;7.90;99.90
33815;DHT22;20121;51.910;8.406;2023-11-21T08:57:00;7.60;99.90
33815;DHT22;20121;51.910;8.406;2023-11-21T08:59:26;7.90;99.90
33815;DHT22;20121;51.910;8.406;2023-11-21T09:01:52;8.00;99.90
33815;DHT22;20121;51.910;8.406;2023-11-21T09:04:17;7.80;99.90
33815;DHT22;20121;51.910;8.406;2023-11-21T09:11:36;7.90;99.90
33815;DHT22;20121;51.910;8.406;2023-11-21T09:14:02;7.90;99.90
33815;DHT22;20121;51.910;8.406;2023-11-21T09:16:31;8.00;99.90
33815;DHT22;20121;51.910;8.406;2023-11-21T09:21:23;7.90;99.90
33815;DHT22;20121;51.910;8.406;2023-11-21T09:23:50;8.00;99.90
33815;DHT22;20121;51.910;8.406;2023-11-21T09:28:44;8.00;99.90
33815;DHT22;20121;51.910;8.406;2023-11-21T09:31:13;7.90;99.90
33815;DHT22;20121;51.910;8.406;2023-11-21T09:33:45;7.90;99.90
33815;DHT22;20121;51.910;8.406;2023-11-21T09:36:12;8.40;99.90
33815;DHT22;20121;51.910;8.406;2023-11-21T09:38:39;8.10;99.90
33815;DHT22;20121;51.910;8.406;2023-11-21T09:41:23;8.20;99.90
33815;DHT22;20121;51.910;8.406;2023-11-21T09:43:54;8.50;99.90
33815;DHT22;20121;51.910;8.406;2023-11-21T09:46:23;7.90;99.90
33815;DHT22;20121;51.910;8.406;2023-11-21T09:48:51;8.00;99.90
33815;DHT22;20121;51.910;8.406;2023-11-21T09:51:19;8.00;99.90
33815;DHT22;20121;51.910;8.406;2023-11-21T09:53:49;8.20;99.90
33815;DHT22;20121;51.910;8.406;2023-11-21T09:56:18;8.00;99.90
33815;DHT22;20121;51.910;8.406;2023-11-21T09:58:51;7.90;99.90
33815;DHT22;20121;51.910;8.406;2023-11-21T10:01:18;8.10;99.90
33815;DHT22;20121;51.910;8.406;2023-11-21T10:03:44;8.20;99.90
33815;DHT22;20121;51.910;8.406;2023-11-21T10:06:13;8.50;99.90
33815;DHT22;20121;51.910;8.406;2023-11-21T10:08:41;8.10;99.90
33815;DHT22;20121;51.910;8.406;2023-11-21T10:11:08;8.10;99.90
33815;DHT22;20121;51.910;8.406;2023-11-21T10:13:37;8.30;99.90
33815;DHT22;20121;51.910;8.406;2023-11-21T10:16:05;8.10;99.90
33815;DHT22;20121;51.910;8.406;2023-11-21T10:18:33;8.30;99.90
33815;DHT22;20121;51.910;8.406;2023-11-21T10:21:00;8.30;99.90
33815;DHT22;20121;51.910;8.406;2023-11-21T10:23:26;8.60;99.90
33815;DHT22;20121;51.910;8.406;2023-11-21T10:25:52;8.40;99.90
33815;DHT22;20121;51.910;8.406;2023-11-21T10:28:18;8.30;99.90
33815;DHT22;20121;51.910;8.406;2023-11-21T10:30:46;8.90;99.90
33815;DHT22;20121;51.910;8.406;2023-11-21T10:33:11;8.60;99.90
33815;DHT22;20121;51.910;8.406;2023-11-21T10:35:44;8.50;99.90
33815;DHT22;20121;51.910;8.406;2023-11-21T10:38:19;8.40;99.90
33815;DHT22;20121;51.910;8.406;2023-11-21T10:40:48;8.70;99.90
33815;DHT22;20121;51.910;8.406;2023-11-21T10:43:15;8.40;99.90
33815;DHT22;20121;51.910;8.406;2023-11-21T10:45:41;8.30;99.90
33815;DHT22;20121;51.910;8.406;2023-11-21T10:48:09;8.30;99.90
33815;DHT22;20121;51.910;8.406;2023-11-21T10:50:36;8.20;99.90
33815;DHT22;20121;51.910;8.406;2023-11-21T10:53:03;8.20;99.90
33815;DHT22;20121;51.910;8.406;2023-11-21T10:55:30;8.50;99.90
33815;DHT22;20121;51.910;8.406;2023-11-21T10:57:59;8.20;99.90
33815;DHT22;20121;51.910;8.406;2023-11-21T11:00:26;8.10;99.90
33815;DHT22;20121;51.910;8.406;2023-11-21T11:02:53;8.20;99.90
33815;DHT22;20121;51.910;8.406;2023-11-21T11:05:21;8.60;99.90
33815;DHT22;20121;51.910;8.406;2023-11-21T11:07:52;8.10;99.90
33815;DHT22;20121;51.910;8.406;2023-11-21T11:10:21;8.50;99.90
33815;DHT22;20121;51.910;8.406;2023-11-21T12:51:01;20.30;99.90
33815;DHT22;20121;51.910;8.406;2023-11-21T12:56:01;20.10;99.90
33815;DHT22;20121;51.910;8.406;2023-11-21T12:58:26;20.20;99.90
33815;DHT22;20121;51.910;8.406;2023-11-21T13:00:52;20.30;99.90
33815;DHT22;20121;51.910;8.406;2023-11-21T13:05:51;20.00;99.90
33815;DHT22;20121;51.910;8.406;2023-11-21T13:13:14;20.00;99.90
33815;DHT22;20121;51.910;8.406;2023-11-21T13:18:15;20.00;99.90
33815;DHT22;20121;51.910;8.406;2023-11-21T13:23:09;19.40;99.90
33815;DHT22;20121;51.910;8.406;2023-11-21T13:25:38;20.40;99.90
33815;DHT22;20121;51.910;8.406;2023-11-21T19:29:35;19.90;99.90
33815;DHT22;20121;51.910;8.406;2023-11-21T19:32:01;20.30;99.90
33815;DHT22;20121;51.910;8.406;2023-11-21T19:34:27;20.00;99.90
33815;DHT22;20121;51.910;8.406;2023-11-21T19:36:55;20.10;99.90
33815;DHT22;20121;51.910;8.406;2023-11-21T19:39:20;20.00;99.90
33815;DHT22;20121;51.910;8.406;2023-11-21T19:44:12;20.00;99.90
33815;DHT22;20121;51.910;8.406;2023-11-21T19:46:38;20.10;99.90
33815;DHT22;20121;51.910;8.406;2023-11-21T19:49:04;20.00;99.90
33815;DHT22;20121;51.910;8.406;2023-11-21T19:51:34;20.40;99.90
33815;DHT22;20121;51.910;8.406;2023-11-21T19:53:59;20.00;99.90
33815;DHT22;20121;51.910;8.406;2023-11-21T19:56:25;20.00;99.90
33815;DHT22;20121;51.910;8.406;2023-11-21T19:58:51;20.50;99.90
33815;DHT22;20121;51.910;8.406;2023-11-21T20:01:17;20.30;99.90
33815;DHT22;20121;51.910;8.406;2023-11-21T20:03:42;20.00;99.90
33815;DHT22;20121;51.910;8.406;2023-11-21T20:06:08;20.00;99.90
33815;DHT22;20121;51.910;8.406;2023-11-21T20:08:35;20.20;99.90
33815;DHT22;20121;51.910;8.406;2023-11-21T20:11:04;20.00;99.90
33815;DHT22;20121;51.910;8.406;2023-11-21T20:13:31;20.10;99.90
33815;DHT22;20121;51.910;8.406;2023-11-21T20:15:57;20.10;99.90
33815;DHT22;20121;51.910;8.406;2023-11-21T20:18:22;20.20;99.90
33815;DHT22;20121;51.910;8.406;2023-11-21T20:20:51;19.90;99.90
33815;DHT22;20121;51.910;8.406;2023-11-21T22:11:03;19.60;99.90
33815;DHT22;20121;51.910;8.406;2023-11-21T22:13:30;20.10;99.90
33815;DHT22;20121;51.910;8.406;2023-11-21T22:15:55;20.00;99.90
33815;DHT22;20121;51.910;8.406;2023-11-21T22:18:21;20.50;99.90
33815;DHT22;20121;51.910;8.406;2023-11-21T22:20:47;19.80;99.90
33815;DHT22;20121;51.910;8.406;2023-11-21T22:23:12;19.80;99.90
33815;DHT22;20121;51.910;8.406;2023-11-21T22:25:38;20.40;99.90
33815;DHT22;20121;51.910;8.406;2023-11-21T22:30:30;20.40;99.90
33815;DHT22;20121;51.910;8.406;2023-11-21T22:32:56;19.50;99.90
33815;DHT22;20121;51.910;8.406;2023-11-21T22:35:24;19.50;99.90
33815;DHT22;20121;51.910;8.406;2023-11-21T22:37:50;19.60;99.90
33815;DHT22;20121;51.910;8.406;2023-11-21T22:40:16;19.90;99.90
33815;DHT22;20121;51.910;8.406;2023-11-21T22:42:42;20.20;99.90
33815;DHT22;20121;51.910;8.406;2023-11-21T22:45:08;20.00;99.90
33815;DHT22;20121;51.910;8.406;2023-11-21T22:47:36;20.40;99.90
33815;DHT22;20121;51.910;8.406;2023-11-21T22:50:02;20.50;99.90
33815;DHT22;20121;51.910;8.406;2023-11-21T22:52:30;19.80;99.90
33815;DHT22;20121;51.910;8.406;2023-11-21T22:54:56;19.70;99.90
33815;DHT22;20121;51.910;8.406;2023-11-21T22:57:22;20.50;99.90
33815;DHT22;20121;51.910;8.406;2023-11-21T22:59:47;19.90;99.90
33815;DHT22;20121;51.910;8.406;2023-11-21T23:02:14;20.40;99.90
33815;DHT22;20121;51.910;8.406;2023-11-21T23:04:41;20.20;99.90
33815;DHT22;20121;51.910;8.406;2023-11-21T23:07:06;19.90;99.90
33815;DHT22;20121;51.910;8.406;2023-11-21T23:09:32;19.80;99.90
33815;DHT22;20121;51.910;8.406;2023-11-21T23:11:58;19.70;99.90
33815;DHT22;20121;51.910;8.406;2023-11-21T23:14:23;19.70;99.90
33815;DHT22;20121;51.910;8.406;2023-11-21T23:16:52;19.90;99.90
33815;DHT22;20121;51.910;8.406;2023-11-21T23:21:45;20.10;99.90
33815;DHT22;20121;51.910;8.406;2023-11-21T23:24:10;20.00;99.90
33815;DHT22;20121;51.910;8.406;2023-11-21T23:26:38;19.60;99.90
33815;DHT22;20121;51.910;8.406;2023-11-21T23:29:06;20.00;99.90
33815;DHT22;20121;51.910;8.406;2023-11-21T23:31:32;20.00;99.90
33815;DHT22;20121;51.910;8.406;2023-11-21T23:33:57;20.10;99.90
33815;DHT22;20121;51.910;8.406;2023-11-21T23:41:16;19.90;99.90
33815;DHT22;20121;51.910;8.406;2023-11-21T23:43:43;19.80;99.90
33815;DHT22;20121;51.910;8.406;2023-11-21T23:46:09;20.00;99.90
33815;DHT22;20121;51.910;8.406;2023-11-21T23:48:37;20.00;99.90
33815;DHT22;20121;51.910;8.406;2023-11-21T23:51:03;20.00;99.90
33815;DHT22;20121;51.910;8.406;2023-11-21T23:53:28;20.40;99.90
33815;DHT22;20121;51.910;8.406;2023-11-21T23:55:54;20.30;99.90
33815;DHT22;20121;51.910;8.406;2023-11-21T23:58:20;19.90;99.90
